Time;durP1;ratioP1;P1;durP2;ratioP2;P2;SDS_P1;SDS_P2;PMS_P1;PMS_P2;Temp;Humidity;BMP_temperature;BMP_pressure;BME280_temperature;BME280_humidity;BME280_pressure;Samples;Min_cycle;Max_cycle;Signal;HPM_P1;HPM_P2
2023/10/27 00:01:27;;;;;;;12.10;10.70;;;;;;;12.90;100.00;97945.49;106315;1259;60411;-83
2023/10/27 00:03:55;;;;;;;11.50;10.30;;;;;;;12.85;100.00;97941.36;106909;1259;62406;-82
2023/10/27 00:06:22;;;;;;;15.80;10.90;;;;;;;12.84;100.00;97944.11;106983;1251;73799;-82
2023/10/27 00:08:50;;;;;;;10.50;9.50;;;;;;;12.83;100.00;97949.77;106595;1257;70793;-83
2023/10/27 00:11:18;;;;;;;10.60;8.70;;;;;;;12.81;100.00;97943.61;106332;1254;72626;-80
2023/10/27 00:13:45;;;;;;;12.40;9.50;;;;;;;12.80;100.00;97940.88;106015;1258;61779;-79
2023/10/27 00:16:14;;;;;;;12.40;9.50;;;;;;;12.81;100.00;97942.44;106058;1251;60476;-79
2023/10/27 00:18:42;;;;;;;11.50;9.30;;;;;;;12.78;100.00;97943.96;106131;1251;71796;-79
2023/10/27 00:21:10;;;;;;;9.00;8.00;;;;;;;12.77;100.00;97941.77;105904;1252;70229;-79
2023/10/27 00:23:41;;;;;;;12.40;8.70;;;;;;;12.78;100.00;97943.52;106202;1254;72953;-80
2023/10/27 00:26:09;;;;;;;9.40;8.40;;;;;;;12.78;100.00;97940.19;106480;1251;61924;-81
2023/10/27 00:28:39;;;;;;;8.90;8.00;;;;;;;12.81;100.00;97936.36;106428;1257;60492;-79
2023/10/27 00:31:06;;;;;;;9.90;8.70;;;;;;;12.85;100.00;97938.17;106657;1251;74183;-78
2023/10/27 00:33:34;;;;;;;10.90;8.00;;;;;;;12.87;100.00;97942.00;106820;1256;68998;-80
2023/10/27 00:36:02;;;;;;;10.10;9.00;;;;;;;12.84;100.00;97939.84;106341;1254;72745;-79
2023/10/27 00:38:30;;;;;;;11.20;9.50;;;;;;;12.81;100.00;97940.30;106065;1257;61885;-81
2023/10/27 00:40:57;;;;;;;9.60;8.60;;;;;;;12.77;100.00;97937.06;106061;1257;60434;-80
2023/10/27 00:43:25;;;;;;;12.80;9.10;;;;;;;12.72;100.00;97935.87;106199;1256;73828;-77
2023/10/27 00:45:53;;;;;;;9.90;8.50;;;;;;;12.68;100.00;97938.20;106755;1251;68924;-79
2023/10/27 00:48:21;;;;;;;10.00;8.50;;;;;;;12.65;100.00;97934.71;106477;1254;70975;-80
2023/10/27 00:50:49;;;;;;;9.70;8.60;;;;;;;12.61;100.00;97934.69;106870;1252;61625;-81
2023/10/27 00:53:20;;;;;;;10.10;8.50;;;;;;;12.57;100.00;97928.85;107579;1251;60322;-79
2023/10/27 00:55:51;;;;;;;10.40;9.30;;;;;;;12.54;100.00;97932.39;108064;1251;72631;-81
2023/10/27 00:58:19;;;;;;;12.90;9.40;;;;;;;12.52;100.00;97932.98;107246;1257;68757;-83
2023/10/27 01:00:47;;;;;;;11.70;9.30;;;;;;;12.49;100.00;97931.20;106195;1254;72678;-85
2023/10/27 01:03:15;;;;;;;13.50;9.00;;;;;;;12.48;100.00;97934.42;107339;1256;60329;-82
2023/10/27 01:05:42;;;;;;;11.70;8.10;;;;;;;12.46;100.00;97932.02;107933;1250;59194;-84
2023/10/27 01:08:10;;;;;;;9.10;7.70;;;;;;;12.45;100.00;97929.73;108540;1251;72702;-82
2023/10/27 01:10:37;;;;;;;9.20;7.40;;;;;;;12.43;100.00;97930.83;106276;1251;70521;-83
2023/10/27 01:13:05;;;;;;;8.20;7.40;;;;;;;12.40;100.00;97933.08;106231;1254;72507;-83
2023/10/27 01:15:32;;;;;;;8.60;7.20;;;;;;;12.37;100.00;97932.26;105956;1256;60859;-81
2023/10/27 01:17:59;;;;;;;10.30;7.30;;;;;;;12.34;100.00;97934.05;106107;1256;60463;-83
2023/10/27 01:20:27;;;;;;;12.80;9.90;;;;;;;12.34;100.00;97930.23;106216;1257;72608;-83
2023/10/27 01:22:56;;;;;;;10.60;7.70;;;;;;;12.35;100.00;97932.30;106082;1251;70566;-87
2023/10/27 01:25:24;;;;;;;9.00;7.00;;;;;;;12.37;100.00;97929.80;107069;1251;71898;-83
2023/10/27 01:27:51;;;;;;;8.70;7.00;;;;;;;12.39;100.00;97930.34;108911;1251;60930;-85
2023/10/27 01:30:19;;;;;;;7.40;6.50;;;;;;;12.42;100.00;97932.64;108487;1254;59296;-85
2023/10/27 01:32:47;;;;;;;7.50;6.00;;;;;;;12.47;100.00;97938.48;106932;1257;72426;-83
2023/10/27 01:35:15;;;;;;;9.60;6.20;;;;;;;12.49;100.00;97944.36;106281;1257;69026;-85
2023/10/27 01:37:42;;;;;;;6.50;5.80;;;;;;;12.51;100.00;97942.60;106332;1254;71677;-84
2023/10/27 01:40:10;;;;;;;7.00;5.80;;;;;;;12.52;100.00;97940.75;106711;1256;61803;-86
2023/10/27 01:42:38;;;;;;;7.50;6.30;;;;;;;12.48;100.00;97939.58;107358;1251;60331;-85
2023/10/27 01:45:06;;;;;;;7.70;6.30;;;;;;;12.43;100.00;97938.20;109036;1251;72577;-85
2023/10/27 01:47:34;;;;;;;8.50;6.60;;;;;;;12.38;100.00;97940.17;108956;1250;68882;-84
2023/10/27 01:50:01;;;;;;;7.10;5.70;;;;;;;12.36;100.00;97941.39;108311;1256;71613;-82
2023/10/27 01:52:29;;;;;;;8.30;5.80;;;;;;;12.35;100.00;97948.23;106853;1253;60425;-82
2023/10/27 01:54:57;;;;;;;7.40;6.50;;;;;;;12.31;100.00;97950.35;106770;1256;60431;-81
2023/10/27 01:57:26;;;;;;;7.90;6.10;;;;;;;12.26;100.00;97942.05;108349;1251;72540;-83
2023/10/27 01:59:53;;;;;;;8.60;6.50;;;;;;;12.24;100.00;97944.66;109284;1251;69030;-82
2023/10/27 02:02:20;;;;;;;9.50;6.50;;;;;;;12.21;100.00;97946.06;108651;1258;71447;-82
2023/10/27 02:04:48;;;;;;;9.00;5.90;;;;;;;12.19;100.00;97948.89;107448;1251;61695;-83
2023/10/27 02:07:16;;;;;;;10.50;6.60;;;;;;;12.16;100.00;97951.76;107662;1251;60296;-82
2023/10/27 02:09:44;;;;;;;9.90;5.80;;;;;;;12.14;100.00;97946.52;107679;1251;74283;-81
2023/10/27 02:12:11;;;;;;;7.40;5.80;;;;;;;12.12;100.00;97945.04;107631;1257;69201;-81
2023/10/27 02:14:39;;;;;;;15.40;11.90;;;;;;;12.11;100.00;97938.86;106361;1253;71623;-80
2023/10/27 02:17:06;;;;;;;7.80;6.40;;;;;;;12.10;100.00;97940.42;105670;1257;567349;-79
2023/10/27 02:21:08;;;;;;;8.40;6.40;;;;;;;12.07;100.00;97940.99;102743;1291;600787;-84
2023/10/27 02:23:35;;;;;;;7.30;6.60;;;;;;;12.04;100.00;97935.95;105590;1273;59886;-83
2023/10/27 02:26:03;;;;;;;8.40;6.40;;;;;;;12.04;100.00;97940.77;106318;1266;59171;-83
2023/10/27 02:28:31;;;;;;;7.30;5.90;;;;;;;12.03;100.00;97935.80;106305;1266;71049;-83
2023/10/27 02:30:58;;;;;;;6.40;5.70;;;;;;;12.02;100.00;97939.41;105617;1268;70067;-83
2023/10/27 02:33:26;;;;;;;6.50;5.50;;;;;;;12.02;100.00;97939.23;106824;1266;71787;-82
2023/10/27 02:35:54;;;;;;;6.00;5.10;;;;;;;12.01;100.00;97945.19;107170;1266;194470;-82
2023/10/27 02:38:21;;;;;;;7.40;5.50;;;;;;;11.99;100.00;97949.72;108955;1255;58897;-82
2023/10/27 02:40:50;;;;;;;8.00;6.20;;;;;;;11.97;100.00;97950.27;107624;1263;72976;-84
2023/10/27 02:43:19;;;;;;;6.50;5.80;;;;;;;11.97;100.00;97957.88;106688;1256;68843;-84
2023/10/27 02:45:47;;;;;;;7.20;5.90;;;;;;;11.94;100.00;97963.45;107088;1256;72740;-82
2023/10/27 02:48:14;;;;;;;7.60;5.90;;;;;;;11.92;100.00;97969.29;105858;1256;59773;-82
2023/10/27 02:50:42;;;;;;;6.60;5.50;;;;;;;11.88;100.00;97973.67;106241;1256;59720;-82
2023/10/27 02:53:10;;;;;;;10.70;8.60;;;;;;;11.89;100.00;97970.41;105931;1256;73074;-82
2023/10/27 02:55:37;;;;;;;7.20;6.20;;;;;;;11.90;100.00;97974.29;106592;1263;70316;-81
2023/10/27 02:58:05;;;;;;;7.10;5.80;;;;;;;11.91;100.00;97977.14;106209;1257;71401;-79
2023/10/27 03:00:33;;;;;;;6.60;5.40;;;;;;;11.91;100.00;97969.42;106164;1262;59731;-82
2023/10/27 03:03:00;;;;;;;9.80;5.80;;;;;;;11.90;100.00;97967.95;107774;1256;60056;-79
2023/10/27 03:05:28;;;;;;;8.60;5.80;;;;;;;11.86;100.00;97962.27;108398;1256;72024;-82
2023/10/27 03:07:55;;;;;;;7.90;6.10;;;;;;;11.84;100.00;97959.92;106941;1256;71085;-83
2023/10/27 03:10:23;;;;;;;8.50;6.00;;;;;;;11.81;100.00;97959.56;105579;1256;72681;-83
2023/10/27 03:12:50;;;;;;;8.00;6.10;;;;;;;11.79;100.00;97957.79;105756;1257;61624;-81
2023/10/27 03:15:18;;;;;;;6.60;5.90;;;;;;;11.75;100.00;97965.61;105653;1256;60969;-82
2023/10/27 03:17:46;;;;;;;6.90;5.80;;;;;;;11.72;100.00;97966.65;105597;1257;73197;-84
2023/10/27 03:20:13;;;;;;;6.80;5.90;;;;;;;11.69;100.00;97972.73;105947;1264;69172;-85
2023/10/27 03:22:41;;;;;;;7.00;5.60;;;;;;;11.66;100.00;97968.30;105672;1260;72365;-84
2023/10/27 03:25:08;;;;;;;7.50;6.10;;;;;;;11.64;100.00;97965.25;105494;1256;61715;-85
2023/10/27 03:27:36;;;;;;;12.40;6.80;;;;;;;11.63;100.00;97964.00;105942;1256;59682;-85
2023/10/27 03:30:04;;;;;;;11.10;6.60;;;;;;;11.61;100.00;97965.44;106102;1262;73093;-82
2023/10/27 03:32:31;;;;;;;7.00;5.90;;;;;;;11.61;100.00;97963.57;105847;1264;68938;-85
2023/10/27 03:35:00;;;;;;;8.20;6.20;;;;;;;11.60;100.00;97959.35;105836;1256;71403;-84
2023/10/27 03:37:28;;;;;;;8.30;6.40;;;;;;;11.58;100.00;97963.09;107257;1256;60399;-85
2023/10/27 03:39:56;;;;;;;7.90;6.10;;;;;;;11.55;100.00;97967.86;107658;1256;59653;-86
2023/10/27 03:42:24;;;;;;;8.20;6.20;;;;;;;11.56;100.00;97968.35;106883;1256;73387;-84
2023/10/27 03:44:51;;;;;;;7.00;6.00;;;;;;;11.56;100.00;97966.01;106607;1257;69067;-85
2023/10/27 03:47:21;;;;;;;5.70;5.10;;;;;;;11.54;100.00;97955.48;106756;1256;73919;-84
2023/10/27 03:49:48;;;;;;;9.10;5.30;;;;;;;11.51;100.00;97955.17;106672;1257;62165;-82
2023/10/27 03:52:16;;;;;;;6.80;6.10;;;;;;;11.49;100.00;97959.05;107502;1256;59473;-81
2023/10/27 03:54:44;;;;;;;7.90;6.20;;;;;;;11.46;100.00;97966.18;107671;1256;73111;-81
2023/10/27 03:57:11;;;;;;;9.20;6.00;;;;;;;11.44;100.00;97971.33;107907;1256;69363;-80
2023/10/27 03:59:39;;;;;;;7.30;6.10;;;;;;;11.42;100.00;97965.11;107906;1257;72945;-81
2023/10/27 04:02:06;;;;;;;7.00;5.50;;;;;;;11.42;100.00;97961.46;107020;1258;60455;-83
2023/10/27 04:04:34;;;;;;;7.70;6.20;;;;;;;11.40;100.00;97954.25;106745;1256;59332;-84
2023/10/27 04:07:02;;;;;;;7.90;6.10;;;;;;;11.39;100.00;97956.34;107971;1256;72983;-87
2023/10/27 04:09:30;;;;;;;8.10;7.30;;;;;;;11.37;100.00;97956.92;109125;1256;69593;-86
2023/10/27 04:11:58;;;;;;;8.30;7.30;;;;;;;11.36;100.00;97956.19;108742;1256;73600;-84
2023/10/27 04:14:26;;;;;;;8.00;6.80;;;;;;;11.33;100.00;97963.63;106458;1257;60435;-84
2023/10/27 04:16:53;;;;;;;8.00;6.90;;;;;;;11.29;100.00;97961.16;106860;1256;59482;-84
2023/10/27 04:19:21;;;;;;;8.20;6.80;;;;;;;11.25;100.00;97960.46;106260;1256;74935;-85
2023/10/27 04:21:48;;;;;;;8.00;7.00;;;;;;;11.20;100.00;97960.23;106112;1256;70109;-84
2023/10/27 04:24:17;;;;;;;8.60;6.30;;;;;;;11.17;100.00;97960.56;106352;1257;71067;-85
2023/10/27 04:26:44;;;;;;;9.20;7.10;;;;;;;11.14;100.00;97959.47;108210;1252;62096;-83
2023/10/27 04:29:13;;;;;;;9.20;7.30;;;;;;;11.12;100.00;97960.30;107267;1253;59771;-82
2023/10/27 04:31:40;;;;;;;10.50;8.70;;;;;;;11.11;100.00;97961.38;108073;1251;73235;-82
2023/10/27 04:34:08;;;;;;;7.50;6.40;;;;;;;11.12;100.00;97965.49;106823;1254;68698;-84
2023/10/27 04:36:36;;;;;;;8.10;7.30;;;;;;;11.11;100.00;97966.00;106271;1256;71461;-83
2023/10/27 04:39:04;;;;;;;10.40;7.30;;;;;;;11.09;100.00;97969.29;106015;1253;60394;-86
2023/10/27 04:41:31;;;;;;;8.60;7.10;;;;;;;11.06;100.00;97971.21;106556;1253;59966;-82
2023/10/27 04:43:59;;;;;;;9.70;7.60;;;;;;;11.04;100.00;97976.02;107293;1253;72883;-86
2023/10/27 04:46:26;;;;;;;8.30;7.30;;;;;;;11.04;100.00;97974.27;107080;1253;71018;-81
2023/10/27 04:48:58;;;;;;;8.50;7.20;;;;;;;11.04;100.00;97978.58;107702;1253;72734;-84
2023/10/27 04:51:41;;;;;;;8.00;6.90;;;;;;;11.06;100.00;97976.30;108259;1258;62957;-84
2023/10/27 04:54:08;;;;;;;8.70;7.40;;;;;;;11.06;100.00;97971.25;106739;1261;59580;-85
2023/10/27 04:56:36;;;;;;;8.10;7.30;;;;;;;11.07;100.00;97972.15;105643;1258;71786;-85
2023/10/27 04:59:03;;;;;;;7.70;6.90;;;;;;;11.07;100.00;97973.41;105486;1260;70156;-84
2023/10/27 05:01:31;;;;;;;8.10;6.70;;;;;;;11.06;100.00;97974.06;105694;1257;71451;-80
2023/10/27 05:03:58;;;;;;;8.40;7.40;;;;;;;11.06;100.00;97974.33;105718;1261;62139;-80
2023/10/27 05:06:26;;;;;;;7.50;6.70;;;;;;;11.07;100.00;97977.34;105844;1257;60012;-84
2023/10/27 05:08:53;;;;;;;9.90;7.30;;;;;;;11.06;100.00;97978.36;105950;1263;73208;-87
2023/10/27 05:11:21;;;;;;;7.40;6.70;;;;;;;11.06;100.00;97978.01;106486;1258;69145;-83
2023/10/27 05:13:48;;;;;;;9.40;7.40;;;;;;;11.07;100.00;97980.13;108660;1258;73581;-84
2023/10/27 05:16:16;;;;;;;9.00;7.20;;;;;;;11.11;100.00;97984.18;107997;1258;60486;-84
2023/10/27 05:18:43;;;;;;;9.90;7.00;;;;;;;11.14;100.00;97983.80;105979;1258;59735;-86
2023/10/27 05:21:16;;;;;;;9.60;7.40;;;;;;;11.18;100.00;97985.04;106198;1259;73236;-82
2023/10/27 05:23:43;;;;;;;8.70;7.80;;;;;;;11.20;100.00;97984.48;105846;1264;68913;-86
2023/10/27 05:26:11;;;;;;;8.10;7.30;;;;;;;11.22;100.00;97979.65;106896;1261;71276;-83
2023/10/27 05:28:39;;;;;;;7.90;7.00;;;;;;;11.24;100.00;97982.44;107968;1260;62644;-81
2023/10/27 05:31:07;;;;;;;12.60;11.30;;;;;;;11.26;100.00;97984.83;107974;1258;59473;-83
2023/10/27 05:33:34;;;;;;;16.50;13.40;;;;;;;11.28;100.00;97990.36;107669;1258;73020;-85
2023/10/27 05:36:03;;;;;;;17.10;13.20;;;;;;;11.29;100.00;97989.09;106324;1258;70521;-86
2023/10/27 05:38:31;;;;;;;16.00;11.60;;;;;;;11.29;100.00;97991.75;106844;1257;72649;-82
2023/10/27 05:40:58;;;;;;;12.30;10.60;;;;;;;11.29;100.00;97997.77;107689;1258;60625;-85
2023/10/27 05:43:26;;;;;;;11.70;10.50;;;;;;;11.32;100.00;98000.27;106539;1259;59804;-84
2023/10/27 05:45:54;;;;;;;15.60;11.50;;;;;;;11.35;100.00;98004.71;105955;1258;73055;-84
2023/10/27 05:48:21;;;;;;;13.40;10.80;;;;;;;11.38;100.00;98010.63;106967;1258;70428;-77
2023/10/27 05:50:49;;;;;;;12.70;11.00;;;;;;;11.39;100.00;98012.41;106884;1261;71631;-80
2023/10/27 05:53:16;;;;;;;13.50;12.10;;;;;;;11.39;100.00;98010.33;105558;1264;59627;-78
2023/10/27 05:55:43;;;;;;;13.10;11.00;;;;;;;11.40;100.00;98009.95;105338;1261;60004;-78
2023/10/27 05:58:11;;;;;;;14.80;10.90;;;;;;;11.39;100.00;98011.16;105659;1261;73146;-78
2023/10/27 06:00:38;;;;;;;10.50;9.40;;;;;;;11.40;100.00;98010.23;105524;1259;69952;-80
2023/10/27 06:03:06;;;;;;;14.30;9.30;;;;;;;11.43;100.00;98004.27;105403;1260;70851;-80
2023/10/27 06:05:33;;;;;;;11.10;9.30;;;;;;;11.43;100.00;97998.48;105349;1258;61737;-80
2023/10/27 06:08:02;;;;;;;12.80;9.90;;;;;;;11.45;100.00;97999.08;105466;1258;59682;-81
2023/10/27 06:10:30;;;;;;;12.30;8.90;;;;;;;11.51;100.00;98000.80;105476;1258;72053;-78
2023/10/27 06:13:00;;;;;;;12.40;9.70;;;;;;;11.58;100.00;98000.41;105629;1258;70000;-80
2023/10/27 06:15:29;;;;;;;11.80;8.90;;;;;;;11.69;100.00;98000.95;105961;1262;71529;-79
2023/10/27 06:17:57;;;;;;;10.10;8.00;;;;;;;11.80;100.00;98004.77;106346;1258;60041;-78
2023/10/27 06:20:24;;;;;;;11.90;9.00;;;;;;;11.94;100.00;98008.77;106537;1258;60396;-78
2023/10/27 06:22:52;;;;;;;10.90;7.70;;;;;;;12.06;100.00;98015.00;106106;1258;72258;-79
2023/10/27 06:25:19;;;;;;;8.50;7.60;;;;;;;12.15;100.00;98010.44;105528;1258;68985;-81
2023/10/27 06:27:47;;;;;;;9.70;7.90;;;;;;;12.27;100.00;98013.50;105517;1258;71168;-81
2023/10/27 06:30:14;;;;;;;9.70;7.80;;;;;;;12.38;100.00;98013.98;105806;1264;60497;-80
2023/10/27 06:32:42;;;;;;;12.00;8.80;;;;;;;12.42;100.00;98004.75;105758;1263;60428;-80
2023/10/27 06:35:09;;;;;;;8.90;7.90;;;;;;;12.44;100.00;98012.11;105470;1258;73006;-80
2023/10/27 06:37:37;;;;;;;9.10;8.00;;;;;;;12.45;100.00;98017.66;105530;1263;70373;-80
2023/10/27 06:40:06;;;;;;;12.10;8.70;;;;;;;12.47;100.00;98017.36;105441;1260;72692;-81
2023/10/27 06:42:33;;;;;;;11.50;9.00;;;;;;;12.52;100.00;98023.23;105661;1259;61818;-79
2023/10/27 06:45:03;;;;;;;10.10;9.00;;;;;;;12.57;100.00;98024.65;105976;1258;60477;-81
2023/10/27 06:47:31;;;;;;;9.80;8.80;;;;;;;12.60;100.00;98025.48;106128;1263;73928;-79
2023/10/27 06:50:01;;;;;;;11.30;9.40;;;;;;;12.60;100.00;98021.46;105850;1263;69015;-79
2023/10/27 06:52:29;;;;;;;11.70;9.30;;;;;;;12.60;100.00;98018.23;105636;1260;72718;-79
2023/10/27 06:54:56;;;;;;;10.10;8.80;;;;;;;12.63;100.00;98021.59;105497;1258;61726;-81
2023/10/27 06:57:24;;;;;;;13.20;9.20;;;;;;;12.65;100.00;98021.36;105495;1264;60166;-78
2023/10/27 06:59:55;;;;;;;8.70;7.80;;;;;;;12.67;100.00;98021.47;105437;1260;74281;-81
2023/10/27 07:02:23;;;;;;;11.00;8.80;;;;;;;12.69;100.00;98018.20;105555;1261;68896;-80
2023/10/27 07:04:50;;;;;;;11.50;9.10;;;;;;;12.69;100.00;98015.95;105389;1259;72772;-80
2023/10/27 07:07:19;;;;;;;8.90;8.00;;;;;;;12.74;100.00;98019.78;105481;1260;60646;-79
2023/10/27 07:09:55;;;;;;;11.70;8.70;;;;;;;12.85;100.00;98028.50;106694;1258;60465;-79
2023/10/27 07:12:23;;;;;;;14.60;8.30;;;;;;;12.97;100.00;98030.64;107457;1258;72684;-82
2023/10/27 07:14:50;;;;;;;9.90;8.70;;;;;;;13.05;99.66;98034.17;106094;1259;68726;-79
2023/10/27 07:17:18;;;;;;;9.50;7.90;;;;;;;13.07;98.67;98033.59;105992;1264;70720;-78
2023/10/27 07:19:45;;;;;;;12.30;8.70;;;;;;;13.05;98.27;98027.83;106060;1261;61903;-79
2023/10/27 07:22:14;;;;;;;12.70;10.00;;;;;;;13.01;98.01;98031.23;105813;1258;60405;-81
2023/10/27 07:24:41;;;;;;;11.40;9.60;;;;;;;13.01;98.35;98030.22;105782;1265;73817;-79
2023/10/27 07:27:09;;;;;;;11.20;8.60;;;;;;;12.99;98.05;98031.56;106376;1258;68812;-78
2023/10/27 07:29:37;;;;;;;12.80;9.80;;;;;;;13.03;98.78;98033.42;106928;1258;70740;-80
2023/10/27 07:32:05;;;;;;;15.60;9.20;;;;;;;13.13;98.99;98033.95;106039;1258;61775;-80
2023/10/27 07:34:32;;;;;;;10.40;8.80;;;;;;;13.25;99.20;98037.55;105561;1259;60277;-78
2023/10/27 07:37:00;;;;;;;14.20;9.10;;;;;;;13.38;98.68;98036.88;105514;1258;73866;-80
2023/10/27 07:39:28;;;;;;;11.20;8.90;;;;;;;13.51;97.93;98040.17;105581;1261;69376;-79
2023/10/27 07:41:56;;;;;;;12.40;9.80;;;;;;;13.63;97.94;98041.91;105391;1264;70453;-80
2023/10/27 07:44:24;;;;;;;11.90;10.30;;;;;;;13.71;95.40;98051.36;105430;1263;61732;-79
2023/10/27 07:46:52;;;;;;;12.30;9.50;;;;;;;13.77;95.09;98047.76;105572;1258;60366;-79
2023/10/27 07:49:20;;;;;;;11.10;9.40;;;;;;;13.84;95.71;98048.88;105495;1259;76200;-78
2023/10/27 07:51:48;;;;;;;11.10;9.70;;;;;;;13.93;95.01;98051.44;105509;1264;68934;-82
2023/10/27 07:54:16;;;;;;;11.10;9.20;;;;;;;13.99;93.94;98052.01;105521;1260;71234;-84
2023/10/27 07:56:44;;;;;;;12.50;8.40;;;;;;;14.06;94.28;98052.38;106019;1261;62834;-83
2023/10/27 07:59:12;;;;;;;10.80;8.60;;;;;;;14.12;93.45;98050.23;107609;1259;61524;-80
2023/10/27 08:01:39;;;;;;;11.30;9.00;;;;;;;14.16;93.20;98055.02;106059;1259;75951;-78
2023/10/27 08:04:07;;;;;;;12.40;9.10;;;;;;;14.27;92.95;98058.59;105400;1261;70610;-73
2023/10/27 08:06:35;;;;;;;11.50;8.80;;;;;;;14.38;90.85;98060.04;105032;1260;73578;-71
2023/10/27 08:09:02;;;;;;;11.50;8.20;;;;;;;14.44;89.80;98060.83;105022;1264;61993;-78
2023/10/27 08:11:29;;;;;;;11.60;8.70;;;;;;;14.50;89.90;98062.35;105301;1266;60920;-76
2023/10/27 08:13:57;;;;;;;8.80;7.70;;;;;;;14.58;90.16;98065.52;105365;1258;73821;-76
2023/10/27 08:16:24;;;;;;;10.20;8.60;;;;;;;14.65;88.46;98061.34;105341;1258;71015;-78
2023/10/27 08:18:52;;;;;;;11.30;8.90;;;;;;;14.68;88.93;98059.91;105317;1258;72812;-79
2023/10/27 08:21:19;;;;;;;9.60;8.10;;;;;;;14.71;87.76;98065.59;105361;1264;60494;-79
2023/10/27 08:23:47;;;;;;;10.60;7.60;;;;;;;14.82;87.50;98058.91;105245;1259;60548;-78
2023/10/27 08:26:14;;;;;;;8.30;7.20;;;;;;;14.92;87.94;98059.80;105325;1258;73229;-77
2023/10/27 08:28:42;;;;;;;9.40;7.20;;;;;;;15.06;88.22;98067.15;105513;1259;70384;-76
2023/10/27 08:31:09;;;;;;;11.80;8.30;;;;;;;15.20;84.61;98075.95;105435;1258;71404;-76
2023/10/27 08:33:40;;;;;;;8.20;7.00;;;;;;;15.23;85.30;98067.25;105357;1264;60440;-76
2023/10/27 08:36:08;;;;;;;7.90;6.90;;;;;;;15.37;85.56;98073.70;105436;1258;59323;-76
2023/10/27 08:38:35;;;;;;;14.10;8.30;;;;;;;15.56;84.30;98077.95;105621;1264;73953;-76
2023/10/27 08:41:05;;;;;;;10.00;7.40;;;;;;;15.66;82.98;98082.59;105712;1264;70465;-75
2023/10/27 08:43:32;;;;;;;10.80;6.80;;;;;;;15.70;80.75;98089.65;105793;1261;72827;-76
2023/10/27 08:46:04;;;;;;;7.70;6.80;;;;;;;15.71;79.45;98098.72;105291;1259;60440;-76
2023/10/27 08:48:34;;;;;;;6.10;5.60;;;;;;;15.64;79.04;98106.25;105298;1264;62329;-75
2023/10/27 08:51:06;;;;;;;7.00;6.30;;;;;;;15.50;79.05;98114.98;105369;1258;72624;-76
2023/10/27 08:53:38;;;;;;;5.90;5.10;;;;;;;15.43;79.56;98108.23;105200;1267;68644;-78
2023/10/27 08:56:12;;;;;;;6.80;6.00;;;;;;;15.47;79.81;98106.28;105366;1258;71668;-79
2023/10/27 08:58:40;;;;;;;7.20;5.80;;;;;;;15.50;79.45;98107.79;105383;1262;60560;-75
2023/10/27 09:01:08;;;;;;;9.30;6.10;;;;;;;15.56;80.35;98110.98;105344;1259;60471;-75
2023/10/27 09:03:35;;;;;;;8.60;5.40;;;;;;;15.74;80.12;98110.94;105308;1259;72657;-73
2023/10/27 09:06:03;;;;;;;7.30;6.00;;;;;;;16.05;79.46;98112.32;105267;1261;68864;-74
2023/10/27 09:08:31;;;;;;;7.40;5.50;;;;;;;16.36;78.30;98114.48;105208;1262;70810;-72
2023/10/27 09:10:58;;;;;;;9.00;5.70;;;;;;;16.70;77.36;98113.66;105194;1267;61438;-74
2023/10/27 09:13:25;;;;;;;7.30;5.40;;;;;;;17.15;75.06;98104.70;105247;1258;60557;-74
2023/10/27 09:15:53;;;;;;;7.60;5.30;;;;;;;17.67;71.99;98103.80;105301;1257;74874;-73
2023/10/27 09:18:35;;;;;;;9.10;5.60;;;;;;;18.09;70.71;98097.67;105211;1258;70465;-73
2023/10/27 09:21:03;;;;;;;8.80;5.00;;;;;;;18.54;69.30;98095.30;105381;1261;72966;-73
2023/10/27 09:23:43;;;;;;;5.70;4.80;;;;;;;18.98;68.15;98105.06;105343;1259;60471;-74
2023/10/27 09:26:11;;;;;;;8.30;5.00;;;;;;;19.39;65.66;98094.81;105456;1263;60524;-74
2023/10/27 09:28:39;;;;;;;5.00;4.50;;;;;;;19.68;64.46;98093.70;105236;1264;73967;-72
2023/10/27 09:31:07;;;;;;;6.20;5.10;;;;;;;19.88;63.08;98108.45;105316;1258;70340;-72
2023/10/27 09:33:34;;;;;;;6.20;5.00;;;;;;;20.05;62.15;98099.08;105273;1259;73007;-74
2023/10/27 09:36:02;;;;;;;10.50;5.30;;;;;;;20.23;61.14;98102.84;105391;1264;60511;-74
2023/10/27 09:38:30;;;;;;;4.70;4.10;;;;;;;20.39;60.79;98091.83;105363;1266;60598;-72
2023/10/27 09:40:57;;;;;;;5.30;4.40;;;;;;;20.64;59.89;98077.98;105372;1258;74420;-73
2023/10/27 09:43:25;;;;;;;4.60;3.80;;;;;;;20.89;58.62;98075.63;105188;1267;68642;-75
2023/10/27 09:45:53;;;;;;;5.20;4.20;;;;;;;21.16;58.24;98069.84;105239;1259;72930;-73
2023/10/27 09:48:26;;;;;;;4.40;3.80;;;;;;;21.47;57.36;98071.19;105499;1260;60407;-74
2023/10/27 09:51:00;;;;;;;8.80;4.60;;;;;;;21.80;55.84;98071.51;105478;1259;60449;-73
2023/10/27 09:53:28;;;;;;;4.90;4.20;;;;;;;21.90;54.70;98075.77;105469;1264;74859;-73
2023/10/27 09:55:59;;;;;;;5.90;4.60;;;;;;;21.41;54.71;98073.65;105380;1258;70570;-72
2023/10/27 09:58:29;;;;;;;5.70;4.10;;;;;;;20.93;56.34;98072.48;105183;1259;70465;-73
2023/10/27 10:00:56;;;;;;;5.40;3.90;;;;;;;20.87;55.72;98070.13;105438;1261;62461;-73
2023/10/27 10:03:27;;;;;;;7.10;4.30;;;;;;;21.04;55.61;98068.38;105447;1259;60463;-72
2023/10/27 10:06:15;;;;;;;4.00;3.50;;;;;;;21.28;54.62;98067.71;105400;1259;72658;-72
2023/10/27 10:09:06;;;;;;;4.10;3.60;;;;;;;21.60;53.49;98063.10;105295;1264;71387;-74
2023/10/27 10:11:54;;;;;;;4.20;3.80;;;;;;;21.75;52.74;98061.97;105323;1264;71743;-73
2023/10/27 10:14:37;;;;;;;4.20;3.80;;;;;;;21.98;53.10;98050.60;105314;1264;60325;-74
2023/10/27 10:17:04;;;;;;;4.50;3.60;;;;;;;22.36;52.63;98048.02;105345;1261;61250;-72
2023/10/27 10:19:51;;;;;;;3.90;3.50;;;;;;;22.69;50.27;98042.48;105184;1258;72680;-72
2023/10/27 10:22:38;;;;;;;8.00;4.00;;;;;;;23.05;50.77;98035.66;105044;1266;70846;-75
2023/10/27 10:25:15;;;;;;;5.20;4.20;;;;;;;23.28;50.83;98038.71;105347;1260;72377;-73
2023/10/27 10:28:11;;;;;;;5.20;3.50;;;;;;;23.42;49.11;98046.27;105296;1265;60539;-76
2023/10/27 10:30:40;;;;;;;3.70;3.30;;;;;;;23.38;48.92;98046.88;105008;1261;60452;-73
2023/10/27 10:33:22;;;;;;;6.10;4.10;;;;;;;23.33;48.85;98045.44;105342;1258;73076;-75
2023/10/27 10:35:52;;;;;;;;;;;;;;;23.34;49.05;98038.59;105351;1258;70007;-74
2023/10/27 10:38:19;;;;;;;6.70;4.20;;;;;;;23.48;49.31;98032.95;105231;1259;60459;-73
2023/10/27 10:40:57;;;;;;;5.70;4.00;;;;;;;23.82;49.36;98028.50;105235;1264;60548;-72
2023/10/27 10:43:33;;;;;;;5.70;4.10;;;;;;;24.31;48.18;98041.09;105280;1258;62325;-74
2023/10/27 10:46:05;;;;;;;5.10;4.00;;;;;;;24.71;47.14;98035.86;105306;1265;72963;-73
2023/10/27 10:48:40;;;;;;;3.90;3.60;;;;;;;25.04;45.79;98026.90;105403;1261;69324;-72
2023/10/27 10:51:14;;;;;;;7.40;4.70;;;;;;;25.32;45.58;98014.85;105300;1259;72746;-73
2023/10/27 10:53:53;;;;;;;4.70;3.20;;;;;;;25.68;45.06;98009.23;105205;1264;60535;-72
2023/10/27 10:56:21;;;;;;;4.20;3.20;;;;;;;25.97;43.61;98013.95;105353;1264;61891;-74
2023/10/27 10:58:48;;;;;;;5.30;3.00;;;;;;;26.06;42.57;98015.48;105255;1259;74003;-73
2023/10/27 11:01:22;;;;;;;3.10;2.60;;;;;;;25.86;42.66;98014.04;105304;1258;70515;-74
2023/10/27 11:03:51;;;;;;;5.80;3.30;;;;;;;25.89;43.32;98015.77;105403;1259;72783;-74
2023/10/27 11:06:26;;;;;;;5.60;3.00;;;;;;;25.91;42.70;98012.85;105373;1260;60430;-73
2023/10/27 11:08:53;;;;;;;4.10;3.60;;;;;;;25.89;43.68;98006.91;105256;1267;60456;-72
2023/10/27 11:11:21;;;;;;;3.40;2.90;;;;;;;25.95;43.03;98009.93;105315;1264;74088;-73
2023/10/27 11:13:58;;;;;;;3.20;2.80;;;;;;;25.59;42.98;98017.86;105022;1258;70446;-74
2023/10/27 11:16:26;;;;;;;3.10;2.80;;;;;;;24.77;44.16;98019.80;105026;1264;71623;-73
2023/10/27 11:18:59;;;;;;;5.10;3.30;;;;;;;23.84;45.67;98009.02;105311;1259;60476;-73
2023/10/27 11:21:32;;;;;;;4.10;3.60;;;;;;;23.10;47.04;98010.73;105400;1261;62228;-74
2023/10/27 11:24:06;;;;;;;6.10;3.40;;;;;;;22.47;48.43;98009.88;105511;1264;74028;-73
2023/10/27 11:26:38;;;;;;;6.50;3.20;;;;;;;21.94;49.72;98002.58;105334;1259;70499;-72